Etusivu
METAR-TAF:

METAR-TAF

Lentoasemat :

Vannes, Ranska

Leveyspiiri: 47-43-19N, Pituuspiiri: 2-43-41W, korkeus merenpinnasta: 130 m

Tämänhetkinen sää

Tämä raportti tehtiin 26 minuuttia sitten, kello 10.30 UTC
Tuuli 7 kn pohjoisesta, vaihdellen luoteen ja koillisen välillä
Lämpötila 11°C
Kosteus 82%
Ilmanpaine 1030 hPa
Näkyvyys: 7000 m
Hajonneita pilviä 1100 ft:n korkeudessa
Hajonneita pilviä 4700 ft:n korkeudessa

METAR: LFRV 241030Z AUTO 35007KT 320V050 7000 BKN011 BKN047 11/08 Q1030

Aika: 11:56 (10:56 UTC)


TAF: puuttuu

Säähavainnot ja -ennusteet yli 4000 lentoasemalta (METAR- ja TAF-raportit).

Käytössä olevat sääasemat on merkitty karttaan keltaisilla ja punaisilla pisteillä.

Aseta hiiri pisteen päälle nähdäksesi sääaseman nimen.

Klikkaa sitten nähdäksesi säähavainnot ja -ennusteet.

Kartan vaihtaminen: klikkaa mustalla rastilla varustettuja vihreitä pisteitä, niin voit zoomata sisään; viivalla varustettua vihreää pistettä, niin voit zoomata ulos tai vihreitä nuolia, niin pääset viereisille kartoille.


METAR-TAF: